Time;durP1;ratioP1;P1;durP2;ratioP2;P2;SDS_P1;SDS_P2;PMS_P1;PMS_P2;Temp;Humidity;BMP_temperature;BMP_pressure;BME280_temperature;BME280_humidity;BME280_pressure;Samples;Min_cycle;Max_cycle;Signal;HPM_P1;HPM_P2
2020/12/20 00:00:55;;;;;;;43.63;24.35;;;;;;;;;;6218665;23;20177;-94
2020/12/20 00:03:21;;;;;;;47.50;25.17;;;;;;;;;;6219222;23;20183;-95
2020/12/20 00:05:47;;;;;;;51.13;26.58;;;;;;;;;;6221044;23;20189;-95
2020/12/20 00:08:13;;;;;;;52.95;27.50;;;;;;;;;;6222937;23;20207;-96
2020/12/20 00:10:40;;;;;;;57.37;26.63;;;;;;;;;;6223675;23;20184;-94
2020/12/20 00:13:06;;;;;;;46.28;25.52;;;;;;;;;;6226991;23;20420;-95
2020/12/20 00:15:32;;;;;;;51.60;26.73;;;;;;;;;;6228451;23;20184;-95
2020/12/20 00:17:59;;;;;;;51.13;27.50;;;;;;;;;;6228125;23;20267;-96
2020/12/20 00:20:25;;;;;;;59.40;28.55;;;;;;;;;;6226406;23;20480;-96
2020/12/20 00:22:51;;;;;;;58.67;29.27;;;;;;;;;;6226151;23;20239;-95
2020/12/20 00:25:17;;;;;;;60.92;29.60;;;;;;;;;;6224238;23;20230;-96
2020/12/20 00:27:44;;;;;;;59.30;27.13;;;;;;;;;;6226161;23;20276;-95
2020/12/20 00:30:11;;;;;;;61.75;29.10;;;;;;;;;;6225592;23;20413;-96
2020/12/20 00:32:37;;;;;;;54.50;27.17;;;;;;;;;;6229353;23;20207;-94
2020/12/20 00:35:04;;;;;;;64.78;28.50;;;;;;;;;;6235381;23;20264;-94
2020/12/20 00:37:30;;;;;;;67.63;28.67;;;;;;;;;;6229171;23;20491;-94
2020/12/20 00:39:57;;;;;;;55.25;26.70;;;;;;;;;;6228448;23;20256;-96
2020/12/20 00:42:23;;;;;;;55.00;27.50;;;;;;;;;;6229020;23;20203;-96
2020/12/20 00:44:49;;;;;;;60.17;27.83;;;;;;;;;;6234813;23;20213;-96
2020/12/20 00:47:15;;;;;;;59.53;28.85;;;;;;;;;;6236827;23;20226;-96
2020/12/20 00:49:42;;;;;;;63.47;31.10;;;;;;;;;;6228718;23;20242;-96
2020/12/20 00:52:09;;;;;;;53.80;25.60;;;;;;;;;;6225292;23;20421;-95
2020/12/20 00:54:36;;;;;;;63.20;28.73;;;;;;;;;;6226829;23;20225;-95
2020/12/20 00:57:02;;;;;;;66.03;27.80;;;;;;;;;;6225452;23;20193;-94
2020/12/20 00:59:28;;;;;;;64.00;27.97;;;;;;;;;;6226584;23;20440;-96
2020/12/20 01:01:56;;;;;;;66.23;30.40;;;;;;;;;;6228111;23;20818;-95
2020/12/20 01:04:22;;;;;;;69.25;32.70;;;;;;;;;;6225599;23;20824;-96
2020/12/20 01:06:48;;;;;;;79.05;36.80;;;;;;;;;;6227876;23;20225;-96
2020/12/20 01:09:18;;;;;;;70.15;29.23;;;;;;;;;;6225788;23;20264;-96
2020/12/20 01:11:44;;;;;;;52.85;25.73;;;;;;;;;;6226710;23;20187;-95
2020/12/20 01:14:10;;;;;;;49.35;23.65;;;;;;;;;;6225189;23;20257;-95
2020/12/20 01:16:36;;;;;;;45.28;23.05;;;;;;;;;;6227107;23;20234;-95
2020/12/20 01:19:02;;;;;;;42.65;23.75;;;;;;;;;;6225636;23;20294;-96
2020/12/20 01:21:28;;;;;;;67.95;27.90;;;;;;;;;;6227735;23;20176;-95
2020/12/20 01:23:54;;;;;;;45.63;24.00;;;;;;;;;;6226092;23;20557;-94
2020/12/20 01:26:22;;;;;;;48.53;24.30;;;;;;;;;;6226253;23;20179;-95
2020/12/20 01:28:48;;;;;;;53.25;26.00;;;;;;;;;;6226273;23;20202;-96
2020/12/20 01:31:14;;;;;;;48.70;26.17;;;;;;;;;;6224557;23;20184;-95
2020/12/20 01:33:40;;;;;;;45.63;24.05;;;;;;;;;;6226336;23;20181;-96
2020/12/20 01:36:07;;;;;;;43.33;23.00;;;;;;;;;;6224752;23;20186;-95
2020/12/20 01:38:33;;;;;;;42.70;21.63;;;;;;;;;;6227380;23;20230;-96
2020/12/20 01:41:00;;;;;;;44.80;23.45;;;;;;;;;;6224222;23;20186;-95
2020/12/20 01:43:39;;;;;;;42.60;22.88;;;;;;;;;;6224491;23;20183;-96
2020/12/20 01:46:07;;;;;;;38.75;21.60;;;;;;;;;;6224152;23;20181;-95
2020/12/20 01:48:33;;;;;;;42.40;22.00;;;;;;;;;;6225764;23;20219;-96
2020/12/20 01:51:00;;;;;;;38.60;20.48;;;;;;;;;;6221413;23;20176;-96
2020/12/20 01:53:26;;;;;;;39.47;20.77;;;;;;;;;;6217579;23;20236;-94
2020/12/20 01:55:58;;;;;;;43.58;21.58;;;;;;;;;;6222783;23;20973;-95
2020/12/20 01:58:25;;;;;;;42.42;23.52;;;;;;;;;;6223573;23;20179;-95
2020/12/20 02:00:52;;;;;;;43.10;22.42;;;;;;;;;;6226686;23;20614;-95
2020/12/20 02:03:19;;;;;;;49.13;26.38;;;;;;;;;;6230681;23;20236;-96
2020/12/20 02:05:45;;;;;;;38.83;22.38;;;;;;;;;;6227129;23;20229;-96
2020/12/20 02:08:11;;;;;;;53.33;25.67;;;;;;;;;;6220029;23;20218;-96
2020/12/20 02:10:37;;;;;;;56.65;25.58;;;;;;;;;;6220265;23;20205;-96
2020/12/20 02:13:03;;;;;;;52.65;25.30;;;;;;;;;;6224333;23;20207;-96
2020/12/20 02:15:30;;;;;;;52.53;25.40;;;;;;;;;;6225539;23;20297;-96
2020/12/20 02:17:57;;;;;;;56.97;26.95;;;;;;;;;;6227415;23;20228;-95
2020/12/20 02:20:23;;;;;;;54.10;25.33;;;;;;;;;;6224991;23;20236;-95
2020/12/20 02:22:50;;;;;;;48.38;24.85;;;;;;;;;;6223899;23;20181;-95
2020/12/20 02:25:16;;;;;;;52.15;25.90;;;;;;;;;;6223010;23;20233;-96
2020/12/20 02:27:42;;;;;;;60.50;26.10;;;;;;;;;;6225215;23;20221;-95
2020/12/20 02:30:08;;;;;;;51.97;25.67;;;;;;;;;;6225115;23;20174;-95
2020/12/20 02:32:34;;;;;;;48.90;26.73;;;;;;;;;;6230574;23;20233;-96
2020/12/20 02:35:01;;;;;;;50.33;25.50;;;;;;;;;;6238694;23;20166;-96
2020/12/20 02:37:27;;;;;;;47.50;22.52;;;;;;;;;;6223841;23;20257;-95
2020/12/20 02:39:54;;;;;;;42.92;22.95;;;;;;;;;;6223757;23;20182;-94
2020/12/20 02:42:20;;;;;;;51.45;24.02;;;;;;;;;;6225480;23;20211;-96
2020/12/20 02:44:46;;;;;;;49.90;24.50;;;;;;;;;;6224860;23;20176;-95
2020/12/20 02:47:13;;;;;;;43.13;22.67;;;;;;;;;;6222574;23;20205;-96
2020/12/20 02:49:39;;;;;;;57.60;26.23;;;;;;;;;;6223054;23;20240;-96
2020/12/20 02:52:05;;;;;;;50.65;25.27;;;;;;;;;;6221546;23;20185;-96
2020/12/20 02:54:31;;;;;;;49.63;25.02;;;;;;;;;;6223109;23;20183;-96
2020/12/20 02:56:58;;;;;;;51.88;26.45;;;;;;;;;;6222792;23;20228;-95
2020/12/20 02:59:24;;;;;;;46.73;24.13;;;;;;;;;;6220777;23;20207;-94
2020/12/20 03:01:51;;;;;;;44.97;21.88;;;;;;;;;;6224447;23;20420;-95
2020/12/20 03:04:17;;;;;;;45.33;23.65;;;;;;;;;;6225363;23;20200;-96
2020/12/20 03:06:43;;;;;;;41.03;20.45;;;;;;;;;;6225830;23;20185;-96
2020/12/20 03:09:10;;;;;;;39.83;20.87;;;;;;;;;;6191868;23;757413;-96
2020/12/20 03:11:36;;;;;;;35.50;19.05;;;;;;;;;;6226108;23;20180;-95
2020/12/20 03:14:03;;;;;;;37.08;21.30;;;;;;;;;;6221464;23;20216;-95
2020/12/20 03:16:30;;;;;;;40.00;20.30;;;;;;;;;;6223760;23;20173;-95
2020/12/20 03:18:57;;;;;;;40.00;21.80;;;;;;;;;;6225178;23;20197;-96
2020/12/20 03:21:23;;;;;;;46.20;22.15;;;;;;;;;;6222957;23;20188;-96
2020/12/20 03:23:49;;;;;;;38.97;20.95;;;;;;;;;;6225799;23;20183;-95
2020/12/20 03:26:15;;;;;;;37.05;20.48;;;;;;;;;;6223652;23;20178;-96
2020/12/20 03:28:41;;;;;;;39.47;22.17;;;;;;;;;;6225432;23;20278;-95
2020/12/20 03:31:08;;;;;;;41.58;23.02;;;;;;;;;;6222548;23;20206;-95
2020/12/20 03:33:34;;;;;;;35.38;19.58;;;;;;;;;;6225932;23;20185;-95
2020/12/20 03:36:00;;;;;;;39.58;20.48;;;;;;;;;;6223368;23;20185;-96
2020/12/20 03:38:26;;;;;;;36.50;19.38;;;;;;;;;;6224020;23;20172;-95
2020/12/20 03:40:52;;;;;;;33.58;18.35;;;;;;;;;;6226129;23;20176;-95
2020/12/20 03:43:18;;;;;;;32.15;18.85;;;;;;;;;;6225055;23;20211;-95
2020/12/20 03:45:44;;;;;;;31.80;18.52;;;;;;;;;;6225801;23;20308;-94
2020/12/20 03:48:13;;;;;;;31.25;18.70;;;;;;;;;;6225109;23;20204;-96
2020/12/20 03:50:39;;;;;;;32.15;18.85;;;;;;;;;;6226246;23;20254;-96
2020/12/20 03:53:05;;;;;;;40.33;21.05;;;;;;;;;;6228333;23;20175;-95
2020/12/20 03:55:31;;;;;;;34.17;19.10;;;;;;;;;;6232041;23;20196;-95
2020/12/20 03:57:57;;;;;;;35.15;19.35;;;;;;;;;;6223678;23;20182;-95
2020/12/20 04:00:24;;;;;;;34.95;20.45;;;;;;;;;;6225059;23;20260;-95
2020/12/20 04:02:50;;;;;;;37.05;20.60;;;;;;;;;;6226546;23;20205;-95
2020/12/20 04:05:17;;;;;;;34.80;18.75;;;;;;;;;;6226130;23;20177;-95
2020/12/20 04:07:43;;;;;;;33.45;19.40;;;;;;;;;;6226428;23;20209;-94
2020/12/20 04:10:09;;;;;;;36.45;19.73;;;;;;;;;;6227050;23;20187;-95
2020/12/20 04:12:35;;;;;;;33.60;19.58;;;;;;;;;;6227709;23;20182;-95
2020/12/20 04:15:01;;;;;;;41.78;21.65;;;;;;;;;;6227587;23;20244;-95
2020/12/20 04:17:27;;;;;;;38.33;23.80;;;;;;;;;;6228497;23;20189;-94
2020/12/20 04:19:54;;;;;;;35.63;23.90;;;;;;;;;;6229066;23;20203;-96
2020/12/20 04:22:21;;;;;;;36.45;20.80;;;;;;;;;;6235701;23;20207;-95
2020/12/20 04:24:47;;;;;;;37.08;20.98;;;;;;;;;;6236534;23;20229;-95
2020/12/20 04:27:13;;;;;;;34.42;19.48;;;;;;;;;;6224094;23;20196;-95
2020/12/20 04:29:39;;;;;;;37.03;19.88;;;;;;;;;;6225529;23;20259;-95
2020/12/20 04:32:05;;;;;;;34.40;19.85;;;;;;;;;;6224879;23;20182;-95
2020/12/20 04:34:31;;;;;;;30.88;18.52;;;;;;;;;;6226511;23;20181;-95
2020/12/20 04:36:57;;;;;;;31.13;19.00;;;;;;;;;;6225458;23;20188;-94
2020/12/20 04:39:24;;;;;;;36.92;20.33;;;;;;;;;;6227724;23;20182;-95
2020/12/20 04:41:51;;;;;;;35.13;19.97;;;;;;;;;;6226379;23;20179;-95
2020/12/20 04:44:17;;;;;;;59.83;28.30;;;;;;;;;;6227637;23;20476;-95
2020/12/20 04:46:44;;;;;;;48.45;27.30;;;;;;;;;;6226573;23;20179;-95
2020/12/20 04:49:11;;;;;;;65.05;32.70;;;;;;;;;;6225304;23;20180;-96
2020/12/20 04:51:38;;;;;;;46.65;25.52;;;;;;;;;;6226437;23;20468;-95
2020/12/20 04:54:05;;;;;;;48.28;24.38;;;;;;;;;;6227065;23;20179;-95
2020/12/20 04:56:34;;;;;;;35.90;20.77;;;;;;;;;;6226950;23;20181;-95
2020/12/20 04:59:00;;;;;;;38.78;20.83;;;;;;;;;;6225564;23;20233;-96
2020/12/20 05:01:26;;;;;;;34.27;19.07;;;;;;;;;;6227062;23;20239;-95
2020/12/20 05:03:53;;;;;;;40.03;22.48;;;;;;;;;;6226815;23;20505;-96
2020/12/20 05:06:19;;;;;;;33.50;18.50;;;;;;;;;;6227583;23;20228;-95
2020/12/20 05:08:45;;;;;;;36.33;21.10;;;;;;;;;;6227946;23;20205;-96
2020/12/20 05:11:30;;;;;;;39.60;21.90;;;;;;;;;;6226974;23;20178;-95
2020/12/20 05:13:57;;;;;;;35.90;20.45;;;;;;;;;;6226990;23;20170;-96
2020/12/20 05:16:30;;;;;;;34.33;20.75;;;;;;;;;;6228702;23;20234;-95
2020/12/20 05:18:56;;;;;;;34.90;19.40;;;;;;;;;;6232652;23;20197;-96
2020/12/20 05:21:24;;;;;;;38.15;23.38;;;;;;;;;;6224161;23;20182;-95
2020/12/20 05:23:50;;;;;;;40.17;20.27;;;;;;;;;;6225226;23;20179;-95
2020/12/20 05:26:17;;;;;;;35.92;20.35;;;;;;;;;;6223657;23;20195;-95
2020/12/20 05:28:43;;;;;;;33.83;20.20;;;;;;;;;;6225221;23;20204;-96
2020/12/20 05:31:10;;;;;;;35.15;19.60;;;;;;;;;;6224881;23;20178;-96
2020/12/20 05:33:37;;;;;;;37.85;20.10;;;;;;;;;;6227107;23;20184;-96
2020/12/20 05:36:04;;;;;;;37.15;19.73;;;;;;;;;;6227611;23;20267;-95
2020/12/20 05:38:30;;;;;;;38.70;19.47;;;;;;;;;;6225262;23;20181;-96
2020/12/20 05:40:56;;;;;;;42.67;20.30;;;;;;;;;;6227637;23;20425;-96
2020/12/20 05:43:23;;;;;;;40.33;20.95;;;;;;;;;;6226237;23;20230;-95
2020/12/20 05:45:49;;;;;;;41.53;20.65;;;;;;;;;;6231982;23;20179;-95
2020/12/20 05:48:17;;;;;;;40.65;22.60;;;;;;;;;;6222733;23;20201;-95
2020/12/20 05:50:48;;;;;;;40.83;22.13;;;;;;;;;;6223706;23;20186;-94
2020/12/20 05:53:15;;;;;;;42.00;22.83;;;;;;;;;;6223994;23;20181;-94
2020/12/20 05:55:41;;;;;;;43.35;22.35;;;;;;;;;;6225808;23;20201;-95
2020/12/20 05:58:11;;;;;;;43.40;21.63;;;;;;;;;;6226526;23;20179;-95
2020/12/20 06:00:37;;;;;;;46.00;22.67;;;;;;;;;;6225960;23;20179;-95
2020/12/20 06:03:04;;;;;;;45.47;21.65;;;;;;;;;;6225224;23;20183;-96
2020/12/20 06:05:33;;;;;;;39.75;20.88;;;;;;;;;;6223670;23;20551;-95
2020/12/20 06:08:03;;;;;;;38.90;22.08;;;;;;;;;;6225333;23;20214;-95
2020/12/20 06:10:33;;;;;;;38.60;20.80;;;;;;;;;;6227014;23;20209;-94
2020/12/20 06:13:02;;;;;;;38.38;21.83;;;;;;;;;;6239059;23;20184;-95
2020/12/20 06:15:30;;;;;;;41.90;22.20;;;;;;;;;;6224552;23;20190;-95
2020/12/20 06:17:58;;;;;;;40.97;20.77;;;;;;;;;;6226394;23;20180;-96
2020/12/20 06:20:28;;;;;;;38.78;19.80;;;;;;;;;;6225158;23;20173;-96
2020/12/20 06:22:55;;;;;;;42.33;21.75;;;;;;;;;;6223952;23;20184;-95
2020/12/20 06:25:23;;;;;;;39.83;21.35;;;;;;;;;;6225975;23;20184;-94
2020/12/20 06:27:49;;;;;;;44.67;22.25;;;;;;;;;;6224907;23;20208;-95
2020/12/20 06:30:15;;;;;;;46.28;23.35;;;;;;;;;;6226234;23;20201;-96
2020/12/20 06:32:42;;;;;;;43.78;22.45;;;;;;;;;;6223847;23;20175;-96
2020/12/20 06:35:13;;;;;;;54.30;24.30;;;;;;;;;;6223949;23;20240;-96
2020/12/20 06:37:39;;;;;;;51.80;24.88;;;;;;;;;;6223284;23;20184;-96
2020/12/20 06:40:07;;;;;;;49.83;25.50;;;;;;;;;;6225172;23;20198;-96
2020/12/20 06:42:37;;;;;;;62.35;25.88;;;;;;;;;;6224095;23;20177;-96
2020/12/20 06:45:16;;;;;;;56.10;24.15;;;;;;;;;;6227062;23;20172;-96
2020/12/20 06:47:43;;;;;;;52.05;23.38;;;;;;;;;;6227851;23;20197;-96
2020/12/20 06:50:09;;;;;;;56.92;25.23;;;;;;;;;;6228127;23;20193;-96
2020/12/20 06:52:44;;;;;;;50.60;23.88;;;;;;;;;;6227667;23;20181;-96
2020/12/20 06:55:12;;;;;;;62.25;27.05;;;;;;;;;;6226894;23;20181;-95
2020/12/20 06:58:07;;;;;;;58.53;25.27;;;;;;;;;;6229656;23;20187;-95
2020/12/20 07:00:43;;;;;;;60.65;25.45;;;;;;;;;;6224410;23;20234;-96
2020/12/20 07:03:10;;;;;;;55.92;24.80;;;;;;;;;;6227553;23;20233;-96
2020/12/20 07:05:38;;;;;;;57.55;26.67;;;;;;;;;;6227317;23;20170;-96
2020/12/20 07:08:12;;;;;;;57.65;25.77;;;;;;;;;;6227821;23;20242;-96
2020/12/20 07:10:42;;;;;;;67.68;30.17;;;;;;;;;;6227487;23;20181;-95
2020/12/20 07:13:09;;;;;;;57.38;28.58;;;;;;;;;;6226330;23;20259;-96
2020/12/20 07:15:48;;;;;;;58.45;29.05;;;;;;;;;;6225078;23;20174;-96
2020/12/20 07:18:33;;;;;;;52.10;28.48;;;;;;;;;;6226511;23;20198;-96
2020/12/20 07:20:59;;;;;;;58.58;29.30;;;;;;;;;;6226930;23;20176;-95
2020/12/20 07:23:25;;;;;;;50.87;27.60;;;;;;;;;;6225297;23;20238;-95
2020/12/20 07:25:53;;;;;;;55.15;28.08;;;;;;;;;;6227811;23;20413;-96
2020/12/20 07:28:19;;;;;;;67.63;33.17;;;;;;;;;;6226258;23;20218;-95
2020/12/20 07:30:46;;;;;;;68.05;31.67;;;;;;;;;;6226875;23;20935;-95
2020/12/20 07:33:12;;;;;;;52.42;28.67;;;;;;;;;;6230009;23;20184;-95
2020/12/20 07:35:43;;;;;;;66.75;31.38;;;;;;;;;;6231484;23;20186;-95
2020/12/20 07:38:09;;;;;;;67.57;33.10;;;;;;;;;;6227999;23;20880;-95
2020/12/20 07:40:36;;;;;;;58.33;29.90;;;;;;;;;;6228305;23;20944;-95
2020/12/20 07:43:03;;;;;;;67.40;32.90;;;;;;;;;;6226028;23;20409;-96
2020/12/20 07:45:29;;;;;;;74.00;35.53;;;;;;;;;;6226879;23;20896;-95
2020/12/20 07:47:55;;;;;;;66.23;34.10;;;;;;;;;;6226045;23;20777;-96
2020/12/20 07:50:22;;;;;;;69.28;33.55;;;;;;;;;;6223304;23;20413;-95
2020/12/20 07:52:48;;;;;;;68.97;35.60;;;;;;;;;;6224381;23;20180;-94
2020/12/20 07:55:14;;;;;;;72.07;36.40;;;;;;;;;;6226510;23;20407;-95
2020/12/20 07:57:40;;;;;;;62.75;33.85;;;;;;;;;;6229208;23;20175;-94
2020/12/20 08:00:07;;;;;;;72.80;35.47;;;;;;;;;;6233377;23;20200;-95
2020/12/20 08:02:33;;;;;;;68.43;35.77;;;;;;;;;;6222600;23;20430;-95
2020/12/20 08:05:06;;;;;;;65.50;36.15;;;;;;;;;;6221972;23;20517;-95
2020/12/20 08:07:32;;;;;;;73.35;37.75;;;;;;;;;;6224294;23;20206;-95
2020/12/20 08:09:58;;;;;;;76.05;39.28;;;;;;;;;;6226423;23;20198;-95
2020/12/20 08:12:28;;;;;;;69.93;38.37;;;;;;;;;;6223656;23;20209;-94
2020/12/20 08:15:00;;;;;;;84.15;46.38;;;;;;;;;;6224987;23;20413;-95
2020/12/20 08:17:30;;;;;;;95.23;49.27;;;;;;;;;;6225010;23;20189;-95
2020/12/20 08:19:57;;;;;;;96.70;48.85;;;;;;;;;;6225941;23;20418;-94
2020/12/20 08:22:27;;;;;;;103.23;50.57;;;;;;;;;;6224326;23;20171;-94
2020/12/20 08:24:53;;;;;;;103.00;47.87;;;;;;;;;;6225803;23;20493;-95
2020/12/20 08:27:22;;;;;;;107.20;47.67;;;;;;;;;;6224334;23;20448;-94
2020/12/20 08:29:49;;;;;;;90.03;43.13;;;;;;;;;;6224830;23;20410;-94
2020/12/20 08:32:16;;;;;;;89.17;44.70;;;;;;;;;;6223775;23;20411;-94
2020/12/20 08:34:43;;;;;;;75.03;42.93;;;;;;;;;;6222403;23;20413;-95
2020/12/20 08:37:10;;;;;;;77.80;38.33;;;;;;;;;;6221999;23;20414;-95
2020/12/20 08:39:36;;;;;;;68.80;38.87;;;;;;;;;;6221875;23;20411;-95
2020/12/20 08:42:03;;;;;;;71.77;39.00;;;;;;;;;;6223807;23;20410;-94
2020/12/20 08:44:30;;;;;;;84.87;45.90;;;;;;;;;;6219939;23;20874;-94
2020/12/20 08:47:04;;;;;;;86.43;50.47;;;;;;;;;;6225203;23;20413;-93
2020/12/20 08:49:30;;;;;;;85.77;47.73;;;;;;;;;;6223510;23;20410;-94
2020/12/20 08:52:05;;;;;;;86.97;49.57;;;;;;;;;;6223745;23;20418;-94
2020/12/20 08:54:31;;;;;;;73.97;41.67;;;;;;;;;;6220807;23;20418;-93
2020/12/20 08:56:58;;;;;;;78.00;47.93;;;;;;;;;;6221601;23;20417;-94
2020/12/20 08:59:25;;;;;;;88.33;54.10;;;;;;;;;;6221763;23;20414;-94
2020/12/20 09:01:52;;;;;;;66.50;37.27;;;;;;;;;;6222024;23;20417;-94
2020/12/20 09:04:18;;;;;;;63.20;35.50;;;;;;;;;;6225441;23;20410;-95
2020/12/20 09:06:55;;;;;;;60.80;32.00;;;;;;;;;;6223288;23;20413;-94
2020/12/20 09:09:23;;;;;;;65.13;37.10;;;;;;;;;;6225504;23;20454;-94
2020/12/20 09:11:49;;;;;;;62.90;34.50;;;;;;;;;;6225181;23;20904;-94
2020/12/20 09:14:15;;;;;;;55.10;32.27;;;;;;;;;;6225966;23;20461;-93
2020/12/20 09:16:42;;;;;;;62.83;34.43;;;;;;;;;;6225173;23;20958;-94
2020/12/20 09:19:09;;;;;;;69.70;41.63;;;;;;;;;;6226109;23;20419;-94
2020/12/20 09:21:35;;;;;;;72.67;39.90;;;;;;;;;;6224796;23;20414;-94
2020/12/20 09:24:01;;;;;;;60.50;36.47;;;;;;;;;;6225515;23;20409;-94
2020/12/20 09:26:28;;;;;;;60.63;36.87;;;;;;;;;;6225073;23;20421;-93
2020/12/20 09:28:54;;;;;;;56.40;32.73;;;;;;;;;;6223130;23;20446;-93
2020/12/20 09:31:21;;;;;;;47.13;29.20;;;;;;;;;;6224455;23;20480;-96
2020/12/20 09:33:47;;;;;;;54.13;30.10;;;;;;;;;;6223842;23;20433;-94
2020/12/20 09:38:40;;;;;;;44.90;30.38;;;;;;;;;;6254716;22;20523;-95
2020/12/20 09:41:07;;;;;;;50.57;28.70;;;;;;;;;;6258444;23;20179;-93
2020/12/20 09:43:34;;;;;;;50.77;30.10;;;;;;;;;;6266679;22;20422;-95
2020/12/20 09:46:00;;;;;;;48.17;29.60;;;;;;;;;;6259058;22;20406;-94
2020/12/20 09:48:27;;;;;;;53.90;33.57;;;;;;;;;;6255959;23;20449;-96
2020/12/20 09:50:57;;;;;;;54.03;32.40;;;;;;;;;;6258909;23;20441;-95
2020/12/20 09:53:23;;;;;;;49.83;31.93;;;;;;;;;;6266961;23;20413;-96
2020/12/20 09:55:49;;;;;;;40.30;26.60;;;;;;;;;;6252868;23;20419;-94
2020/12/20 09:58:16;;;;;;;38.87;24.80;;;;;;;;;;6256269;23;20418;-95
2020/12/20 10:00:43;;;;;;;43.30;28.00;;;;;;;;;;6268083;23;20401;-96
2020/12/20 10:03:09;;;;;;;47.03;30.03;;;;;;;;;;6257374;23;20421;-94
2020/12/20 10:05:36;;;;;;;52.93;31.43;;;;;;;;;;6258373;22;20453;-93
2020/12/20 10:08:02;;;;;;;50.20;31.10;;;;;;;;;;6252047;23;20449;-94
2020/12/20 10:10:29;;;;;;;52.50;32.90;;;;;;;;;;6251739;23;20402;-92
2020/12/20 10:12:55;;;;;;;47.90;31.93;;;;;;;;;;6251500;23;20783;-93
2020/12/20 10:15:23;;;;;;;50.53;33.33;;;;;;;;;;6258198;22;20456;-96
2020/12/20 10:17:50;;;;;;;58.67;35.00;;;;;;;;;;6252851;23;20492;-93
2020/12/20 10:20:39;;;;;;;48.90;31.93;;;;;;;;;;6266302;23;20397;-96
2020/12/20 10:23:05;;;;;;;53.73;32.10;;;;;;;;;;6255378;23;20406;-95
2020/12/20 10:25:31;;;;;;;50.40;33.43;;;;;;;;;;6255622;23;20437;-95
2020/12/20 10:27:57;;;;;;;51.87;32.90;;;;;;;;;;6254206;23;20507;-93
2020/12/20 10:30:24;;;;;;;49.60;32.87;;;;;;;;;;6255668;23;20406;-95
2020/12/20 10:32:51;;;;;;;51.40;32.20;;;;;;;;;;6255684;23;20436;-94
2020/12/20 10:35:18;;;;;;;48.23;32.60;;;;;;;;;;6252273;23;20429;-94
2020/12/20 10:37:44;;;;;;;52.87;33.30;;;;;;;;;;6253480;23;20397;-94
2020/12/20 10:40:16;;;;;;;48.33;32.73;;;;;;;;;;6253875;23;20421;-96
2020/12/20 10:42:42;;;;;;;60.43;37.10;;;;;;;;;;6255156;23;20411;-93
2020/12/20 10:45:08;;;;;;;55.50;35.47;;;;;;;;;;6253681;23;20409;-95
2020/12/20 10:47:34;;;;;;;53.00;34.50;;;;;;;;;;6255899;23;20402;-94
2020/12/20 10:50:01;;;;;;;51.70;34.30;;;;;;;;;;6254422;23;20416;-93
2020/12/20 10:52:27;;;;;;;46.80;30.03;;;;;;;;;;6256239;23;20410;-93
2020/12/20 10:54:53;;;;;;;65.03;38.50;;;;;;;;;;6253507;23;20417;-94
2020/12/20 10:57:19;;;;;;;62.30;40.10;;;;;;;;;;6254506;23;20413;-94
2020/12/20 10:59:45;;;;;;;61.50;38.87;;;;;;;;;;6254984;23;20414;-94
2020/12/20 11:02:11;;;;;;;68.93;41.87;;;;;;;;;;6261298;23;20430;-95
2020/12/20 11:04:37;;;;;;;64.80;40.10;;;;;;;;;;6255827;23;20409;-94
2020/12/20 11:07:04;;;;;;;57.43;39.80;;;;;;;;;;6254850;23;20436;-94
2020/12/20 11:09:31;;;;;;;62.13;38.20;;;;;;;;;;6254865;23;20449;-92
2020/12/20 11:11:57;;;;;;;54.67;36.77;;;;;;;;;;6254257;23;20413;-94
2020/12/20 11:14:23;;;;;;;55.47;36.63;;;;;;;;;;6254382;23;20406;-93
2020/12/20 11:16:50;;;;;;;58.57;38.23;;;;;;;;;;6252975;23;20669;-93
2020/12/20 11:19:16;;;;;;;62.33;36.77;;;;;;;;;;6250346;23;20421;-92
2020/12/20 11:21:44;;;;;;;60.67;37.67;;;;;;;;;;6252939;23;20416;-92
2020/12/20 11:24:11;;;;;;;62.47;38.37;;;;;;;;;;6254357;23;20467;-94
2020/12/20 11:26:37;;;;;;;60.17;38.23;;;;;;;;;;6257019;23;20730;-93
2020/12/20 11:29:03;;;;;;;64.23;38.17;;;;;;;;;;6260605;22;20475;-92
2020/12/20 11:31:29;;;;;;;61.30;37.77;;;;;;;;;;6259353;23;20402;-92
2020/12/20 11:33:55;;;;;;;58.63;39.10;;;;;;;;;;6253081;23;20444;-92
2020/12/20 11:36:22;;;;;;;58.37;41.00;;;;;;;;;;6254733;23;20406;-93
2020/12/20 11:38:48;;;;;;;65.20;40.10;;;;;;;;;;6252114;23;20410;-93
2020/12/20 11:41:19;;;;;;;53.00;37.20;;;;;;;;;;6251070;23;20410;-93
2020/12/20 11:43:45;;;;;;;56.40;35.17;;;;;;;;;;6253365;23;20465;-93
2020/12/20 11:46:11;;;;;;;61.13;36.97;;;;;;;;;;6253204;23;20412;-94
2020/12/20 11:48:37;;;;;;;49.73;34.17;;;;;;;;;;6253615;23;20475;-92
2020/12/20 11:51:03;;;;;;;62.30;35.73;;;;;;;;;;6251828;23;20405;-92
2020/12/20 11:53:29;;;;;;;58.77;38.20;;;;;;;;;;6252213;23;20410;-92
2020/12/20 11:55:55;;;;;;;52.23;35.00;;;;;;;;;;6249681;23;21077;-93
2020/12/20 11:58:22;;;;;;;47.60;33.57;;;;;;;;;;6253786;23;20424;-94
2020/12/20 12:00:49;;;;;;;48.30;31.93;;;;;;;;;;6252802;23;20516;-92
2020/12/20 12:03:15;;;;;;;41.43;28.63;;;;;;;;;;6254861;23;20436;-92
2020/12/20 12:05:41;;;;;;;48.27;31.40;;;;;;;;;;6254692;23;20437;-93
2020/12/20 12:08:08;;;;;;;49.37;31.90;;;;;;;;;;6251219;23;20433;-93
2020/12/20 12:10:34;;;;;;;49.97;32.10;;;;;;;;;;6252049;23;20420;-93
2020/12/20 12:13:00;;;;;;;48.23;31.67;;;;;;;;;;6252787;23;20413;-94
2020/12/20 12:15:27;;;;;;;45.00;31.10;;;;;;;;;;6255474;23;20401;-95
2020/12/20 12:17:53;;;;;;;49.27;32.17;;;;;;;;;;6253134;23;20440;-95
2020/12/20 12:20:19;;;;;;;47.37;32.13;;;;;;;;;;6253819;23;20417;-93
2020/12/20 12:22:46;;;;;;;47.47;33.20;;;;;;;;;;6253466;23;20482;-93
2020/12/20 12:25:13;;;;;;;52.20;32.83;;;;;;;;;;6256433;23;20409;-93
2020/12/20 12:27:39;;;;;;;49.23;33.83;;;;;;;;;;6255971;23;20412;-93
2020/12/20 12:32:31;;;;;;;47.67;32.65;;;;;;;;;;6248575;22;20484;-94
2020/12/20 12:34:57;;;;;;;50.67;32.20;;;;;;;;;;6255276;23;20178;-93
2020/12/20 12:37:23;;;;;;;45.33;31.27;;;;;;;;;;6257638;23;20468;-94
2020/12/20 12:39:49;;;;;;;48.93;30.80;;;;;;;;;;6256260;23;20421;-94
2020/12/20 12:42:15;;;;;;;48.13;30.93;;;;;;;;;;6255304;23;20425;-94
2020/12/20 12:44:42;;;;;;;40.23;28.80;;;;;;;;;;6253562;23;20410;-94
2020/12/20 12:47:08;;;;;;;39.87;27.70;;;;;;;;;;6249592;23;20519;-93
2020/12/20 12:49:35;;;;;;;45.27;27.30;;;;;;;;;;6249718;23;20449;-94
2020/12/20 12:52:01;;;;;;;45.83;28.17;;;;;;;;;;6249468;23;20410;-95
2020/12/20 12:54:27;;;;;;;42.20;29.33;;;;;;;;;;6251886;23;20417;-95
2020/12/20 12:56:53;;;;;;;40.67;27.90;;;;;;;;;;6250750;23;20412;-93
2020/12/20 12:59:19;;;;;;;41.63;27.70;;;;;;;;;;6250328;23;20437;-94
2020/12/20 13:01:45;;;;;;;45.03;27.57;;;;;;;;;;6252173;23;20410;-94
2020/12/20 13:04:11;;;;;;;41.17;28.53;;;;;;;;;;6255867;23;20413;-93
2020/12/20 13:06:38;;;;;;;46.53;31.30;;;;;;;;;;6254044;23;20457;-93
2020/12/20 13:09:05;;;;;;;48.40;31.47;;;;;;;;;;6251933;23;20460;-94
2020/12/20 13:11:31;;;;;;;52.23;34.50;;;;;;;;;;6254197;23;20815;-93
2020/12/20 13:13:57;;;;;;;43.57;30.37;;;;;;;;;;6263303;22;20408;-94
2020/12/20 13:16:23;;;;;;;47.83;30.23;;;;;;;;;;6258988;23;20418;-93
2020/12/20 13:18:49;;;;;;;44.83;29.13;;;;;;;;;;6251636;22;20446;-94
2020/12/20 13:21:19;;;;;;;44.50;30.30;;;;;;;;;;6252200;23;20517;-94
2020/12/20 13:23:46;;;;;;;45.90;29.33;;;;;;;;;;6251851;23;20429;-94
2020/12/20 13:26:12;;;;;;;46.30;29.47;;;;;;;;;;6253266;23;20409;-93
2020/12/20 13:28:38;;;;;;;50.50;33.20;;;;;;;;;;6254862;23;20515;-95
2020/12/20 13:31:04;;;;;;;46.87;29.00;;;;;;;;;;6256365;23;20419;-95
2020/12/20 13:33:30;;;;;;;45.00;29.10;;;;;;;;;;6253692;23;20413;-94
2020/12/20 13:35:57;;;;;;;45.33;27.70;;;;;;;;;;6255874;23;20410;-93
2020/12/20 13:38:23;;;;;;;42.30;26.43;;;;;;;;;;6256710;23;20406;-93
2020/12/20 13:40:50;;;;;;;38.43;26.70;;;;;;;;;;6251056;23;20414;-92
2020/12/20 13:43:16;;;;;;;45.20;26.87;;;;;;;;;;6256077;23;20418;-92
2020/12/20 13:45:42;;;;;;;42.80;27.30;;;;;;;;;;6251816;23;20409;-93
2020/12/20 13:48:08;;;;;;;42.90;27.60;;;;;;;;;;6255069;23;20453;-92
2020/12/20 13:50:34;;;;;;;43.80;28.97;;;;;;;;;;6254611;23;21004;-93
2020/12/20 13:53:00;;;;;;;45.53;28.27;;;;;;;;;;6253926;22;20422;-94
2020/12/20 13:55:26;;;;;;;39.10;27.10;;;;;;;;;;6250757;23;20410;-94
2020/12/20 13:57:53;;;;;;;40.67;26.43;;;;;;;;;;6245454;23;20496;-94
2020/12/20 14:00:19;;;;;;;44.10;25.47;;;;;;;;;;6246744;23;20414;-95
2020/12/20 14:02:45;;;;;;;40.10;25.60;;;;;;;;;;6245769;23;20446;-93
2020/12/20 14:05:12;;;;;;;33.13;22.70;;;;;;;;;;6245616;23;20413;-93
2020/12/20 14:07:38;;;;;;;39.47;24.47;;;;;;;;;;6244384;23;20418;-94
2020/12/20 14:10:04;;;;;;;37.57;25.70;;;;;;;;;;6246872;23;20447;-94
2020/12/20 14:12:30;;;;;;;41.37;25.33;;;;;;;;;;6246893;23;20414;-93
2020/12/20 14:14:57;;;;;;;37.20;24.80;;;;;;;;;;6251772;23;20420;-93
2020/12/20 14:17:23;;;;;;;37.23;24.77;;;;;;;;;;6253176;23;20492;-94
2020/12/20 14:19:49;;;;;;;38.00;24.40;;;;;;;;;;6251073;23;20414;-93